sensor_id;sensor_type;location;lat;lon;timestamp;P1;durP1;ratioP1;P2;durP2;ratioP2
69748;SDS011;57019;52.354;6.584;2022-12-15T00:02:42;8.98;;;3.90;;
69748;SDS011;57019;52.354;6.584;2022-12-15T00:05:27;9.68;;;3.60;;
69748;SDS011;57019;52.354;6.584;2022-12-15T00:08:10;9.65;;;3.90;;
69748;SDS011;57019;52.354;6.584;2022-12-15T00:10:55;9.65;;;3.85;;
69748;SDS011;57019;52.354;6.584;2022-12-15T00:13:39;8.50;;;3.50;;
69748;SDS011;57019;52.354;6.584;2022-12-15T00:16:23;9.05;;;3.67;;
69748;SDS011;57019;52.354;6.584;2022-12-15T00:19:07;8.98;;;3.95;;
69748;SDS011;57019;52.354;6.584;2022-12-15T00:21:51;10.43;;;3.70;;
69748;SDS011;57019;52.354;6.584;2022-12-15T00:24:35;7.80;;;3.53;;
69748;SDS011;57019;52.354;6.584;2022-12-15T00:27:19;9.63;;;3.63;;
69748;SDS011;57019;52.354;6.584;2022-12-15T00:30:04;9.27;;;3.53;;
69748;SDS011;57019;52.354;6.584;2022-12-15T00:32:49;9.13;;;3.90;;
69748;SDS011;57019;52.354;6.584;2022-12-15T00:35:33;9.43;;;3.78;;
69748;SDS011;57019;52.354;6.584;2022-12-15T00:38:17;7.90;;;3.20;;
69748;SDS011;57019;52.354;6.584;2022-12-15T00:41:00;7.90;;;3.40;;
69748;SDS011;57019;52.354;6.584;2022-12-15T00:43:30;8.83;;;3.30;;
69748;SDS011;57019;52.354;6.584;2022-12-15T00:45:57;8.90;;;3.57;;
69748;SDS011;57019;52.354;6.584;2022-12-15T00:48:42;9.45;;;3.70;;
69748;SDS011;57019;52.354;6.584;2022-12-15T00:51:07;9.00;;;3.35;;
69748;SDS011;57019;52.354;6.584;2022-12-15T00:53:33;9.83;;;3.57;;
69748;SDS011;57019;52.354;6.584;2022-12-15T00:56:17;9.60;;;3.47;;
69748;SDS011;57019;52.354;6.584;2022-12-15T00:59:01;8.48;;;3.38;;
69748;SDS011;57019;52.354;6.584;2022-12-15T01:01:45;8.73;;;3.55;;
69748;SDS011;57019;52.354;6.584;2022-12-15T01:04:29;10.23;;;3.60;;
69748;SDS011;57019;52.354;6.584;2022-12-15T01:07:13;8.85;;;3.53;;
69748;SDS011;57019;52.354;6.584;2022-12-15T01:09:58;8.20;;;3.10;;
69748;SDS011;57019;52.354;6.584;2022-12-15T01:12:42;8.88;;;3.50;;
69748;SDS011;57019;52.354;6.584;2022-12-15T01:15:27;8.75;;;3.25;;
69748;SDS011;57019;52.354;6.584;2022-12-15T01:18:10;9.33;;;3.40;;
69748;SDS011;57019;52.354;6.584;2022-12-15T01:20:55;9.73;;;3.83;;
69748;SDS011;57019;52.354;6.584;2022-12-15T01:23:26;9.10;;;3.30;;
69748;SDS011;57019;52.354;6.584;2022-12-15T01:25:51;9.13;;;3.30;;
69748;SDS011;57019;52.354;6.584;2022-12-15T01:28:18;9.63;;;3.50;;
69748;SDS011;57019;52.354;6.584;2022-12-15T01:30:44;7.88;;;3.30;;
69748;SDS011;57019;52.354;6.584;2022-12-15T01:33:10;8.15;;;3.28;;
69748;SDS011;57019;52.354;6.584;2022-12-15T01:35:36;9.17;;;3.60;;
69748;SDS011;57019;52.354;6.584;2022-12-15T01:38:02;9.05;;;3.47;;
69748;SDS011;57019;52.354;6.584;2022-12-15T01:40:27;8.83;;;3.53;;
69748;SDS011;57019;52.354;6.584;2022-12-15T01:43:12;9.55;;;3.70;;
69748;SDS011;57019;52.354;6.584;2022-12-15T01:48:18;8.23;;;3.30;;
69748;SDS011;57019;52.354;6.584;2022-12-15T01:50:54;8.68;;;3.28;;
69748;SDS011;57019;52.354;6.584;2022-12-15T01:53:23;8.47;;;3.40;;
69748;SDS011;57019;52.354;6.584;2022-12-15T01:55:49;9.05;;;3.10;;
69748;SDS011;57019;52.354;6.584;2022-12-15T01:58:15;8.30;;;3.33;;
69748;SDS011;57019;52.354;6.584;2022-12-15T02:00:42;8.43;;;3.40;;
69748;SDS011;57019;52.354;6.584;2022-12-15T02:03:08;8.53;;;3.50;;
69748;SDS011;57019;52.354;6.584;2022-12-15T02:05:34;8.55;;;3.20;;
69748;SDS011;57019;52.354;6.584;2022-12-15T02:08:00;8.13;;;3.13;;
69748;SDS011;57019;52.354;6.584;2022-12-15T02:10:38;8.20;;;3.13;;
69748;SDS011;57019;52.354;6.584;2022-12-15T02:13:29;9.30;;;3.30;;
69748;SDS011;57019;52.354;6.584;2022-12-15T02:16:13;7.80;;;3.00;;
69748;SDS011;57019;52.354;6.584;2022-12-15T02:21:40;8.90;;;3.45;;
69748;SDS011;57019;52.354;6.584;2022-12-15T02:24:46;8.32;;;3.30;;
69748;SDS011;57019;52.354;6.584;2022-12-15T02:27:48;8.27;;;3.25;;
69748;SDS011;57019;52.354;6.584;2022-12-15T02:38:10;7.97;;;3.42;;
69748;SDS011;57019;52.354;6.584;2022-12-15T02:40:36;8.27;;;3.63;;
69748;SDS011;57019;52.354;6.584;2022-12-15T02:43:02;8.25;;;3.03;;
69748;SDS011;57019;52.354;6.584;2022-12-15T02:45:51;9.00;;;3.47;;
69748;SDS011;57019;52.354;6.584;2022-12-15T02:48:35;9.80;;;3.58;;
69748;SDS011;57019;52.354;6.584;2022-12-15T02:51:10;8.90;;;3.30;;
69748;SDS011;57019;52.354;6.584;2022-12-15T02:54:23;8.32;;;3.38;;
69748;SDS011;57019;52.354;6.584;2022-12-15T02:56:46;8.70;;;3.30;;
69748;SDS011;57019;52.354;6.584;2022-12-15T02:59:34;8.83;;;3.60;;
69748;SDS011;57019;52.354;6.584;2022-12-15T03:02:06;9.02;;;3.20;;
69748;SDS011;57019;52.354;6.584;2022-12-15T03:04:33;8.95;;;3.50;;
69748;SDS011;57019;52.354;6.584;2022-12-15T03:07:03;8.10;;;3.07;;
69748;SDS011;57019;52.354;6.584;2022-12-15T03:09:32;9.40;;;3.58;;
69748;SDS011;57019;52.354;6.584;2022-12-15T03:11:57;8.23;;;3.17;;
69748;SDS011;57019;52.354;6.584;2022-12-15T03:14:23;8.17;;;3.00;;
69748;SDS011;57019;52.354;6.584;2022-12-15T03:16:51;10.27;;;3.30;;
69748;SDS011;57019;52.354;6.584;2022-12-15T03:19:18;8.63;;;3.13;;
69748;SDS011;57019;52.354;6.584;2022-12-15T03:21:43;8.50;;;3.20;;
69748;SDS011;57019;52.354;6.584;2022-12-15T03:24:09;8.10;;;3.25;;
69748;SDS011;57019;52.354;6.584;2022-12-15T03:26:34;8.07;;;3.30;;
69748;SDS011;57019;52.354;6.584;2022-12-15T03:29:00;8.47;;;3.07;;
69748;SDS011;57019;52.354;6.584;2022-12-15T03:31:25;8.63;;;3.10;;
69748;SDS011;57019;52.354;6.584;2022-12-15T03:33:50;8.63;;;3.40;;
69748;SDS011;57019;52.354;6.584;2022-12-15T03:36:16;9.30;;;3.63;;
69748;SDS011;57019;52.354;6.584;2022-12-15T03:38:41;8.63;;;3.20;;
69748;SDS011;57019;52.354;6.584;2022-12-15T03:41:06;9.07;;;2.90;;
69748;SDS011;57019;52.354;6.584;2022-12-15T03:43:32;8.87;;;3.27;;
69748;SDS011;57019;52.354;6.584;2022-12-15T03:45:57;8.00;;;3.00;;
69748;SDS011;57019;52.354;6.584;2022-12-15T03:48:22;7.60;;;3.00;;
69748;SDS011;57019;52.354;6.584;2022-12-15T03:50:48;8.07;;;3.10;;
69748;SDS011;57019;52.354;6.584;2022-12-15T03:53:14;7.93;;;2.95;;
69748;SDS011;57019;52.354;6.584;2022-12-15T03:55:39;8.83;;;3.20;;
69748;SDS011;57019;52.354;6.584;2022-12-15T03:58:05;8.40;;;3.30;;
69748;SDS011;57019;52.354;6.584;2022-12-15T04:00:30;8.25;;;3.42;;
69748;SDS011;57019;52.354;6.584;2022-12-15T04:02:56;7.53;;;3.10;;
69748;SDS011;57019;52.354;6.584;2022-12-15T04:05:23;9.37;;;3.50;;
69748;SDS011;57019;52.354;6.584;2022-12-15T04:07:54;8.48;;;3.08;;
69748;SDS011;57019;52.354;6.584;2022-12-15T04:10:21;8.65;;;3.25;;
69748;SDS011;57019;52.354;6.584;2022-12-15T04:12:48;7.05;;;2.80;;
69748;SDS011;57019;52.354;6.584;2022-12-15T04:15:13;8.60;;;3.33;;
69748;SDS011;57019;52.354;6.584;2022-12-15T04:17:39;8.02;;;3.20;;
69748;SDS011;57019;52.354;6.584;2022-12-15T04:20:06;7.80;;;3.20;;
69748;SDS011;57019;52.354;6.584;2022-12-15T04:22:39;7.63;;;3.20;;
69748;SDS011;57019;52.354;6.584;2022-12-15T04:25:07;8.33;;;3.23;;
69748;SDS011;57019;52.354;6.584;2022-12-15T04:27:54;8.13;;;2.92;;
69748;SDS011;57019;52.354;6.584;2022-12-15T04:30:39;8.07;;;3.20;;
69748;SDS011;57019;52.354;6.584;2022-12-15T04:33:27;8.68;;;3.22;;
69748;SDS011;57019;52.354;6.584;2022-12-15T04:36:11;8.65;;;3.05;;
69748;SDS011;57019;52.354;6.584;2022-12-15T04:38:56;8.07;;;3.03;;
69748;SDS011;57019;52.354;6.584;2022-12-15T04:41:41;8.27;;;3.00;;
69748;SDS011;57019;52.354;6.584;2022-12-15T04:44:25;7.80;;;3.00;;
69748;SDS011;57019;52.354;6.584;2022-12-15T04:47:09;7.75;;;3.22;;
69748;SDS011;57019;52.354;6.584;2022-12-15T04:49:53;7.47;;;2.83;;
69748;SDS011;57019;52.354;6.584;2022-12-15T04:52:37;8.70;;;3.10;;
69748;SDS011;57019;52.354;6.584;2022-12-15T04:55:21;8.20;;;3.22;;
69748;SDS011;57019;52.354;6.584;2022-12-15T04:58:08;7.45;;;2.88;;
69748;SDS011;57019;52.354;6.584;2022-12-15T05:00:53;8.10;;;3.25;;
69748;SDS011;57019;52.354;6.584;2022-12-15T05:03:39;7.60;;;2.83;;
69748;SDS011;57019;52.354;6.584;2022-12-15T05:06:23;7.90;;;2.93;;
69748;SDS011;57019;52.354;6.584;2022-12-15T05:09:07;8.25;;;3.05;;
69748;SDS011;57019;52.354;6.584;2022-12-15T05:11:51;8.77;;;3.17;;
69748;SDS011;57019;52.354;6.584;2022-12-15T05:14:35;8.25;;;2.90;;
69748;SDS011;57019;52.354;6.584;2022-12-15T05:17:19;7.60;;;3.00;;
69748;SDS011;57019;52.354;6.584;2022-12-15T05:20:04;8.30;;;3.03;;
69748;SDS011;57019;52.354;6.584;2022-12-15T05:22:52;7.85;;;3.10;;
69748;SDS011;57019;52.354;6.584;2022-12-15T05:25:40;7.75;;;2.90;;
69748;SDS011;57019;52.354;6.584;2022-12-15T05:28:24;8.63;;;3.13;;
69748;SDS011;57019;52.354;6.584;2022-12-15T05:31:09;7.25;;;2.92;;
69748;SDS011;57019;52.354;6.584;2022-12-15T05:33:53;7.57;;;3.07;;
69748;SDS011;57019;52.354;6.584;2022-12-15T05:36:19;7.32;;;3.05;;
69748;SDS011;57019;52.354;6.584;2022-12-15T05:38:48;7.60;;;2.80;;
69748;SDS011;57019;52.354;6.584;2022-12-15T05:41:15;6.90;;;2.60;;
69748;SDS011;57019;52.354;6.584;2022-12-15T05:43:40;6.85;;;2.88;;
69748;SDS011;57019;52.354;6.584;2022-12-15T05:46:06;7.33;;;2.80;;
69748;SDS011;57019;52.354;6.584;2022-12-15T05:48:31;7.60;;;2.70;;
69748;SDS011;57019;52.354;6.584;2022-12-15T05:50:56;8.17;;;3.17;;
69748;SDS011;57019;52.354;6.584;2022-12-15T05:53:26;7.55;;;2.70;;
69748;SDS011;57019;52.354;6.584;2022-12-15T05:55:52;7.68;;;2.80;;
69748;SDS011;57019;52.354;6.584;2022-12-15T05:58:25;7.85;;;2.92;;
69748;SDS011;57019;52.354;6.584;2022-12-15T06:00:50;10.03;;;2.90;;
69748;SDS011;57019;52.354;6.584;2022-12-15T06:03:16;8.17;;;2.80;;
69748;SDS011;57019;52.354;6.584;2022-12-15T06:05:41;7.47;;;2.83;;
69748;SDS011;57019;52.354;6.584;2022-12-15T06:08:07;7.03;;;2.63;;
69748;SDS011;57019;52.354;6.584;2022-12-15T06:10:32;9.27;;;2.63;;
69748;SDS011;57019;52.354;6.584;2022-12-15T06:12:57;7.30;;;3.00;;
69748;SDS011;57019;52.354;6.584;2022-12-15T06:15:23;7.37;;;2.70;;
69748;SDS011;57019;52.354;6.584;2022-12-15T06:17:48;7.07;;;2.70;;
69748;SDS011;57019;52.354;6.584;2022-12-15T06:20:13;7.27;;;2.97;;
69748;SDS011;57019;52.354;6.584;2022-12-15T06:22:39;10.70;;;2.80;;
69748;SDS011;57019;52.354;6.584;2022-12-15T06:25:04;10.70;;;2.80;;
69748;SDS011;57019;52.354;6.584;2022-12-15T06:27:30;8.48;;;2.92;;
69748;SDS011;57019;52.354;6.584;2022-12-15T06:29:55;7.50;;;2.80;;
69748;SDS011;57019;52.354;6.584;2022-12-15T06:32:21;12.47;;;3.43;;
69748;SDS011;57019;52.354;6.584;2022-12-15T06:34:46;14.23;;;3.50;;
69748;SDS011;57019;52.354;6.584;2022-12-15T06:37:13;33.17;;;6.00;;
69748;SDS011;57019;52.354;6.584;2022-12-15T06:39:38;34.23;;;7.40;;
69748;SDS011;57019;52.354;6.584;2022-12-15T06:42:03;40.42;;;7.13;;
69748;SDS011;57019;52.354;6.584;2022-12-15T06:44:29;38.43;;;6.97;;
69748;SDS011;57019;52.354;6.584;2022-12-15T06:46:54;29.70;;;6.80;;
69748;SDS011;57019;52.354;6.584;2022-12-15T06:49:19;34.00;;;6.80;;
69748;SDS011;57019;52.354;6.584;2022-12-15T06:51:47;37.17;;;6.78;;
69748;SDS011;57019;52.354;6.584;2022-12-15T06:54:13;37.13;;;7.27;;
69748;SDS011;57019;52.354;6.584;2022-12-15T06:56:39;30.83;;;7.10;;
69748;SDS011;57019;52.354;6.584;2022-12-15T06:59:05;32.37;;;7.20;;
69748;SDS011;57019;52.354;6.584;2022-12-15T07:01:31;28.88;;;6.88;;
69748;SDS011;57019;52.354;6.584;2022-12-15T07:03:57;24.80;;;6.00;;
69748;SDS011;57019;52.354;6.584;2022-12-15T07:06:31;22.88;;;5.90;;
69748;SDS011;57019;52.354;6.584;2022-12-15T07:09:00;24.43;;;5.30;;
69748;SDS011;57019;52.354;6.584;2022-12-15T07:11:25;19.42;;;5.05;;
69748;SDS011;57019;52.354;6.584;2022-12-15T07:13:51;21.47;;;5.40;;
69748;SDS011;57019;52.354;6.584;2022-12-15T07:16:17;19.97;;;5.27;;
69748;SDS011;57019;52.354;6.584;2022-12-15T07:18:43;21.48;;;4.93;;
69748;SDS011;57019;52.354;6.584;2022-12-15T07:21:09;16.70;;;5.13;;
69748;SDS011;57019;52.354;6.584;2022-12-15T07:23:35;17.15;;;4.75;;
69748;SDS011;57019;52.354;6.584;2022-12-15T07:26:04;17.75;;;5.30;;
69748;SDS011;57019;52.354;6.584;2022-12-15T07:28:31;17.63;;;4.85;;
69748;SDS011;57019;52.354;6.584;2022-12-15T07:31:01;18.67;;;4.53;;
69748;SDS011;57019;52.354;6.584;2022-12-15T07:33:31;21.73;;;5.32;;
69748;SDS011;57019;52.354;6.584;2022-12-15T07:35:58;15.85;;;4.97;;
69748;SDS011;57019;52.354;6.584;2022-12-15T07:38:24;23.15;;;5.35;;
69748;SDS011;57019;52.354;6.584;2022-12-15T07:40:50;20.48;;;4.85;;
69748;SDS011;57019;52.354;6.584;2022-12-15T07:43:15;15.40;;;4.70;;
69748;SDS011;57019;52.354;6.584;2022-12-15T07:45:41;18.57;;;4.60;;
69748;SDS011;57019;52.354;6.584;2022-12-15T07:48:07;16.93;;;4.83;;
69748;SDS011;57019;52.354;6.584;2022-12-15T07:50:32;17.43;;;4.30;;
69748;SDS011;57019;52.354;6.584;2022-12-15T07:52:57;19.77;;;4.50;;
69748;SDS011;57019;52.354;6.584;2022-12-15T07:55:23;14.83;;;4.23;;
69748;SDS011;57019;52.354;6.584;2022-12-15T07:57:49;14.13;;;3.97;;
69748;SDS011;57019;52.354;6.584;2022-12-15T08:00:14;14.52;;;4.13;;
69748;SDS011;57019;52.354;6.584;2022-12-15T08:02:41;13.23;;;3.80;;
69748;SDS011;57019;52.354;6.584;2022-12-15T08:05:07;14.10;;;4.07;;
69748;SDS011;57019;52.354;6.584;2022-12-15T08:07:33;16.67;;;4.20;;
69748;SDS011;57019;52.354;6.584;2022-12-15T08:09:58;14.27;;;4.27;;
69748;SDS011;57019;52.354;6.584;2022-12-15T08:12:23;11.68;;;3.80;;
69748;SDS011;57019;52.354;6.584;2022-12-15T08:14:50;17.17;;;4.10;;
69748;SDS011;57019;52.354;6.584;2022-12-15T08:17:15;12.23;;;3.75;;
69748;SDS011;57019;52.354;6.584;2022-12-15T08:19:41;12.40;;;3.90;;
69748;SDS011;57019;52.354;6.584;2022-12-15T08:22:06;12.47;;;4.33;;
69748;SDS011;57019;52.354;6.584;2022-12-15T08:24:31;12.23;;;4.03;;
69748;SDS011;57019;52.354;6.584;2022-12-15T08:26:57;13.40;;;3.80;;
69748;SDS011;57019;52.354;6.584;2022-12-15T08:29:22;15.30;;;4.37;;
69748;SDS011;57019;52.354;6.584;2022-12-15T08:31:48;14.00;;;4.07;;
69748;SDS011;57019;52.354;6.584;2022-12-15T08:34:13;14.07;;;3.95;;
69748;SDS011;57019;52.354;6.584;2022-12-15T08:36:38;11.53;;;3.90;;
69748;SDS011;57019;52.354;6.584;2022-12-15T08:39:04;11.90;;;3.60;;
69748;SDS011;57019;52.354;6.584;2022-12-15T08:41:30;14.13;;;3.83;;
69748;SDS011;57019;52.354;6.584;2022-12-15T08:43:56;12.13;;;3.75;;
69748;SDS011;57019;52.354;6.584;2022-12-15T08:46:24;12.07;;;3.75;;
69748;SDS011;57019;52.354;6.584;2022-12-15T08:48:51;14.00;;;3.70;;
69748;SDS011;57019;52.354;6.584;2022-12-15T08:51:17;13.77;;;3.70;;
69748;SDS011;57019;52.354;6.584;2022-12-15T08:53:44;11.02;;;3.55;;
69748;SDS011;57019;52.354;6.584;2022-12-15T08:56:11;12.67;;;3.67;;
69748;SDS011;57019;52.354;6.584;2022-12-15T08:58:38;12.93;;;4.00;;
69748;SDS011;57019;52.354;6.584;2022-12-15T09:01:05;11.52;;;3.55;;
69748;SDS011;57019;52.354;6.584;2022-12-15T09:03:33;11.50;;;3.70;;
69748;SDS011;57019;52.354;6.584;2022-12-15T09:06:06;11.35;;;3.67;;
69748;SDS011;57019;52.354;6.584;2022-12-15T09:08:36;13.60;;;4.27;;
69748;SDS011;57019;52.354;6.584;2022-12-15T09:11:01;12.13;;;3.75;;
69748;SDS011;57019;52.354;6.584;2022-12-15T09:13:27;11.43;;;3.30;;
69748;SDS011;57019;52.354;6.584;2022-12-15T09:15:59;11.50;;;3.72;;
69748;SDS011;57019;52.354;6.584;2022-12-15T09:18:31;11.43;;;3.40;;
69748;SDS011;57019;52.354;6.584;2022-12-15T09:21:01;10.23;;;3.55;;
69748;SDS011;57019;52.354;6.584;2022-12-15T09:23:28;11.50;;;3.55;;
69748;SDS011;57019;52.354;6.584;2022-12-15T09:26:00;12.70;;;3.65;;
69748;SDS011;57019;52.354;6.584;2022-12-15T09:28:26;10.10;;;3.40;;
69748;SDS011;57019;52.354;6.584;2022-12-15T09:30:53;11.18;;;3.67;;
69748;SDS011;57019;52.354;6.584;2022-12-15T09:33:18;11.77;;;3.97;;
69748;SDS011;57019;52.354;6.584;2022-12-15T09:35:50;12.10;;;3.90;;
69748;SDS011;57019;52.354;6.584;2022-12-15T09:38:15;9.03;;;3.50;;
69748;SDS011;57019;52.354;6.584;2022-12-15T09:40:41;10.33;;;3.77;;
69748;SDS011;57019;52.354;6.584;2022-12-15T09:43:07;9.18;;;3.15;;
69748;SDS011;57019;52.354;6.584;2022-12-15T09:45:40;11.97;;;4.13;;
69748;SDS011;57019;52.354;6.584;2022-12-15T09:48:12;13.85;;;4.00;;
69748;SDS011;57019;52.354;6.584;2022-12-15T09:50:42;12.25;;;4.00;;
69748;SDS011;57019;52.354;6.584;2022-12-15T09:53:12;11.63;;;3.95;;
69748;SDS011;57019;52.354;6.584;2022-12-15T09:55:41;9.85;;;3.45;;
69748;SDS011;57019;52.354;6.584;2022-12-15T10:03:47;11.35;;;3.63;;
69748;SDS011;57019;52.354;6.584;2022-12-15T10:07:05;11.23;;;3.45;;
69748;SDS011;57019;52.354;6.584;2022-12-15T10:09:37;9.68;;;3.65;;
69748;SDS011;57019;52.354;6.584;2022-12-15T10:14:59;10.18;;;3.67;;
69748;SDS011;57019;52.354;6.584;2022-12-15T10:17:43;9.73;;;3.33;;
69748;SDS011;57019;52.354;6.584;2022-12-15T10:20:17;10.27;;;3.60;;
69748;SDS011;57019;52.354;6.584;2022-12-15T10:22:48;9.13;;;3.47;;
69748;SDS011;57019;52.354;6.584;2022-12-15T10:25:19;10.40;;;3.67;;
69748;SDS011;57019;52.354;6.584;2022-12-15T10:30:57;8.53;;;3.50;;
69748;SDS011;57019;52.354;6.584;2022-12-15T10:33:40;10.52;;;3.80;;
69748;SDS011;57019;52.354;6.584;2022-12-15T10:36:11;10.52;;;3.70;;
69748;SDS011;57019;52.354;6.584;2022-12-15T10:38:40;9.73;;;3.70;;
69748;SDS011;57019;52.354;6.584;2022-12-15T10:41:22;9.85;;;3.58;;
69748;SDS011;57019;52.354;6.584;2022-12-15T10:43:53;12.97;;;3.93;;
69748;SDS011;57019;52.354;6.584;2022-12-15T10:48:52;10.95;;;4.00;;
69748;SDS011;57019;52.354;6.584;2022-12-15T10:56:33;9.17;;;3.50;;
69748;SDS011;57019;52.354;6.584;2022-12-15T11:04:43;10.40;;;3.85;;
69748;SDS011;57019;52.354;6.584;2022-12-15T11:07:24;10.45;;;3.78;;
69748;SDS011;57019;52.354;6.584;2022-12-15T11:09:58;10.40;;;3.60;;
69748;SDS011;57019;52.354;6.584;2022-12-15T11:12:25;9.98;;;3.67;;
69748;SDS011;57019;52.354;6.584;2022-12-15T11:17:45;9.35;;;3.60;;
69748;SDS011;57019;52.354;6.584;2022-12-15T11:20:37;9.75;;;3.70;;
69748;SDS011;57019;52.354;6.584;2022-12-15T11:23:08;9.23;;;3.60;;
69748;SDS011;57019;52.354;6.584;2022-12-15T11:25:41;9.80;;;4.00;;
69748;SDS011;57019;52.354;6.584;2022-12-15T11:28:18;10.35;;;3.78;;
69748;SDS011;57019;52.354;6.584;2022-12-15T11:31:48;9.13;;;3.65;;
69748;SDS011;57019;52.354;6.584;2022-12-15T11:33:45;9.73;;;3.95;;
69748;SDS011;57019;52.354;6.584;2022-12-15T11:36:18;10.00;;;3.77;;
69748;SDS011;57019;52.354;6.584;2022-12-15T11:38:57;9.43;;;3.87;;
69748;SDS011;57019;52.354;6.584;2022-12-15T11:47:12;10.63;;;3.72;;
69748;SDS011;57019;52.354;6.584;2022-12-15T11:55:52;8.85;;;3.80;;
69748;SDS011;57019;52.354;6.584;2022-12-15T12:00:57;9.93;;;3.92;;
69748;SDS011;57019;52.354;6.584;2022-12-15T12:04:03;8.73;;;3.42;;
69748;SDS011;57019;52.354;6.584;2022-12-15T12:09:27;10.00;;;3.85;;
69748;SDS011;57019;52.354;6.584;2022-12-15T12:17:49;9.05;;;3.80;;
69748;SDS011;57019;52.354;6.584;2022-12-15T12:20:24;10.07;;;3.67;;
69748;SDS011;57019;52.354;6.584;2022-12-15T12:22:59;10.50;;;4.07;;
69748;SDS011;57019;52.354;6.584;2022-12-15T12:28:42;8.93;;;3.80;;
69748;SDS011;57019;52.354;6.584;2022-12-15T12:31:39;9.40;;;3.95;;
69748;SDS011;57019;52.354;6.584;2022-12-15T12:40:30;10.10;;;4.15;;
69748;SDS011;57019;52.354;6.584;2022-12-15T12:43:02;9.77;;;3.90;;
69748;SDS011;57019;52.354;6.584;2022-12-15T12:45:30;9.85;;;3.88;;
69748;SDS011;57019;52.354;6.584;2022-12-15T12:48:04;9.17;;;3.90;;
69748;SDS011;57019;52.354;6.584;2022-12-15T12:50:37;9.50;;;4.00;;
69748;SDS011;57019;52.354;6.584;2022-12-15T12:53:03;9.60;;;3.70;;
69748;SDS011;57019;52.354;6.584;2022-12-15T12:55:38;8.65;;;3.47;;
69748;SDS011;57019;52.354;6.584;2022-12-15T13:01:18;9.77;;;3.50;;
69748;SDS011;57019;52.354;6.584;2022-12-15T13:06:56;9.30;;;3.40;;
69748;SDS011;57019;52.354;6.584;2022-12-15T13:09:35;9.40;;;3.70;;
69748;SDS011;57019;52.354;6.584;2022-12-15T13:15:11;10.07;;;3.83;;
69748;SDS011;57019;52.354;6.584;2022-12-15T13:20:42;8.85;;;3.75;;
69748;SDS011;57019;52.354;6.584;2022-12-15T13:25:43;8.73;;;3.67;;
69748;SDS011;57019;52.354;6.584;2022-12-15T13:51:57;8.97;;;4.00;;
69748;SDS011;57019;52.354;6.584;2022-12-15T13:54:29;12.83;;;4.43;;
69748;SDS011;57019;52.354;6.584;2022-12-15T13:57:08;15.05;;;4.38;;
69748;SDS011;57019;52.354;6.584;2022-12-15T14:05:12;9.45;;;4.10;;
69748;SDS011;57019;52.354;6.584;2022-12-15T14:10:20;10.65;;;3.90;;
69748;SDS011;57019;52.354;6.584;2022-12-15T14:12:46;11.10;;;3.80;;
69748;SDS011;57019;52.354;6.584;2022-12-15T14:15:14;14.18;;;4.57;;
69748;SDS011;57019;52.354;6.584;2022-12-15T14:17:41;11.85;;;4.00;;
69748;SDS011;57019;52.354;6.584;2022-12-15T14:20:15;10.50;;;3.97;;
69748;SDS011;57019;52.354;6.584;2022-12-15T14:22:44;9.70;;;3.88;;
69748;SDS011;57019;52.354;6.584;2022-12-15T14:27:53;11.97;;;3.77;;
69748;SDS011;57019;52.354;6.584;2022-12-15T14:33:01;10.30;;;4.03;;
69748;SDS011;57019;52.354;6.584;2022-12-15T14:35:35;11.85;;;4.20;;
69748;SDS011;57019;52.354;6.584;2022-12-15T14:38:13;10.20;;;3.88;;
69748;SDS011;57019;52.354;6.584;2022-12-15T14:40:53;9.30;;;3.80;;
69748;SDS011;57019;52.354;6.584;2022-12-15T14:43:25;9.52;;;3.70;;
69748;SDS011;57019;52.354;6.584;2022-12-15T14:46:04;11.02;;;4.10;;
69748;SDS011;57019;52.354;6.584;2022-12-15T14:48:33;10.60;;;4.30;;
69748;SDS011;57019;52.354;6.584;2022-12-15T14:51:02;10.20;;;3.80;;
69748;SDS011;57019;52.354;6.584;2022-12-15T14:53:32;9.80;;;3.63;;
69748;SDS011;57019;52.354;6.584;2022-12-15T14:56:54;11.50;;;4.22;;
69748;SDS011;57019;52.354;6.584;2022-12-15T14:58:46;10.10;;;4.53;;
69748;SDS011;57019;52.354;6.584;2022-12-15T15:03:55;8.40;;;4.13;;
69748;SDS011;57019;52.354;6.584;2022-12-15T15:06:31;11.50;;;4.50;;
69748;SDS011;57019;52.354;6.584;2022-12-15T15:09:03;9.38;;;4.18;;
69748;SDS011;57019;52.354;6.584;2022-12-15T15:11:42;9.82;;;4.63;;
69748;SDS011;57019;52.354;6.584;2022-12-15T15:14:12;10.65;;;4.18;;
69748;SDS011;57019;52.354;6.584;2022-12-15T15:17:02;9.53;;;3.73;;
69748;SDS011;57019;52.354;6.584;2022-12-15T15:19:28;11.25;;;3.90;;
69748;SDS011;57019;52.354;6.584;2022-12-15T15:21:55;9.52;;;3.70;;
69748;SDS011;57019;52.354;6.584;2022-12-15T15:24:28;9.25;;;3.50;;
69748;SDS011;57019;52.354;6.584;2022-12-15T15:30:13;9.90;;;3.80;;
69748;SDS011;57019;52.354;6.584;2022-12-15T15:32:56;10.32;;;4.20;;
69748;SDS011;57019;52.354;6.584;2022-12-15T15:35:24;9.05;;;3.70;;
69748;SDS011;57019;52.354;6.584;2022-12-15T15:37:55;10.43;;;4.10;;
69748;SDS011;57019;52.354;6.584;2022-12-15T15:40:54;10.23;;;3.72;;
69748;SDS011;57019;52.354;6.584;2022-12-15T15:43:23;9.70;;;4.40;;
69748;SDS011;57019;52.354;6.584;2022-12-15T15:45:51;9.27;;;4.20;;
69748;SDS011;57019;52.354;6.584;2022-12-15T15:48:26;9.98;;;4.47;;
69748;SDS011;57019;52.354;6.584;2022-12-15T15:50:54;10.90;;;4.50;;
69748;SDS011;57019;52.354;6.584;2022-12-15T15:53:20;8.90;;;4.13;;
69748;SDS011;57019;52.354;6.584;2022-12-15T15:55:47;10.55;;;4.20;;
69748;SDS011;57019;52.354;6.584;2022-12-15T15:58:16;9.25;;;4.30;;
69748;SDS011;57019;52.354;6.584;2022-12-15T16:00:41;10.80;;;4.50;;
69748;SDS011;57019;52.354;6.584;2022-12-15T16:03:07;8.60;;;4.20;;
69748;SDS011;57019;52.354;6.584;2022-12-15T16:05:32;9.67;;;4.20;;
69748;SDS011;57019;52.354;6.584;2022-12-15T16:07:59;8.98;;;3.80;;
69748;SDS011;57019;52.354;6.584;2022-12-15T16:10:25;20.73;;;5.50;;
69748;SDS011;57019;52.354;6.584;2022-12-15T16:12:51;10.37;;;4.27;;
69748;SDS011;57019;52.354;6.584;2022-12-15T16:15:20;8.70;;;4.20;;
69748;SDS011;57019;52.354;6.584;2022-12-15T16:17:47;10.10;;;4.13;;
69748;SDS011;57019;52.354;6.584;2022-12-15T16:20:14;8.93;;;4.20;;
69748;SDS011;57019;52.354;6.584;2022-12-15T16:22:41;11.07;;;4.77;;
69748;SDS011;57019;52.354;6.584;2022-12-15T16:25:13;10.57;;;4.82;;
69748;SDS011;57019;52.354;6.584;2022-12-15T16:27:41;11.68;;;4.30;;
69748;SDS011;57019;52.354;6.584;2022-12-15T16:30:17;12.35;;;4.45;;
69748;SDS011;57019;52.354;6.584;2022-12-15T16:32:47;11.52;;;5.38;;
69748;SDS011;57019;52.354;6.584;2022-12-15T16:35:12;16.53;;;5.30;;
69748;SDS011;57019;52.354;6.584;2022-12-15T16:37:38;18.67;;;7.10;;
69748;SDS011;57019;52.354;6.584;2022-12-15T16:40:14;21.85;;;7.75;;
69748;SDS011;57019;52.354;6.584;2022-12-15T16:45:20;24.38;;;9.35;;
69748;SDS011;57019;52.354;6.584;2022-12-15T16:47:46;26.97;;;9.90;;
69748;SDS011;57019;52.354;6.584;2022-12-15T16:50:13;25.37;;;9.00;;
69748;SDS011;57019;52.354;6.584;2022-12-15T16:52:40;23.42;;;8.90;;
69748;SDS011;57019;52.354;6.584;2022-12-15T16:55:24;27.85;;;8.88;;
69748;SDS011;57019;52.354;6.584;2022-12-15T16:57:50;23.20;;;8.45;;
69748;SDS011;57019;52.354;6.584;2022-12-15T17:00:20;23.48;;;8.02;;
69748;SDS011;57019;52.354;6.584;2022-12-15T17:02:48;22.87;;;7.90;;
69748;SDS011;57019;52.354;6.584;2022-12-15T17:05:14;25.55;;;8.13;;
69748;SDS011;57019;52.354;6.584;2022-12-15T17:07:40;22.23;;;7.70;;
69748;SDS011;57019;52.354;6.584;2022-12-15T17:10:10;22.38;;;7.25;;
69748;SDS011;57019;52.354;6.584;2022-12-15T17:12:40;24.03;;;7.27;;
69748;SDS011;57019;52.354;6.584;2022-12-15T17:15:11;20.80;;;6.60;;
69748;SDS011;57019;52.354;6.584;2022-12-15T17:17:41;18.75;;;7.60;;
69748;SDS011;57019;52.354;6.584;2022-12-15T17:20:06;19.30;;;6.47;;
69748;SDS011;57019;52.354;6.584;2022-12-15T17:22:32;20.50;;;6.80;;
69748;SDS011;57019;52.354;6.584;2022-12-15T17:24:58;18.53;;;6.47;;